Time;durP1;ratioP1;P1;durP2;ratioP2;P2;SDS_P1;SDS_P2;PMS_P1;PMS_P2;Temp;Humidity;BMP_temperature;BMP_pressure;BME280_temperature;BME280_humidity;BME280_pressure;Samples;Min_cycle;Max_cycle;Signal;HPM_P1;HPM_P2
2021/11/26 00:01:14;;;;;;;37.95;20.75;;;3.30;99.90;;;;;;5014491;28;20259;-60
2021/11/26 00:03:42;;;;;;;36.47;19.70;;;3.30;99.90;;;;;;5019073;28;20215;-59
2021/11/26 00:06:09;;;;;;;31.35;18.40;;;3.30;99.90;;;;;;5016553;28;20235;-59
2021/11/26 00:08:36;;;;;;;34.13;18.65;;;3.30;99.90;;;;;;5014064;28;20683;-59
2021/11/26 00:11:05;;;;;;;39.78;19.35;;;3.30;99.90;;;;;;5015494;28;20317;-59
2021/11/26 00:13:35;;;;;;;37.97;18.55;;;3.30;99.90;;;;;;5016645;28;20273;-60
2021/11/26 00:16:08;;;;;;;34.45;18.20;;;3.30;99.90;;;;;;5016416;28;20196;-60
2021/11/26 00:18:41;;;;;;;31.45;17.90;;;3.30;99.90;;;;;;5017880;28;20247;-59
2021/11/26 00:21:09;;;;;;;33.38;17.30;;;3.30;99.90;;;;;;5019214;28;20188;-61
2021/11/26 00:23:36;;;;;;;38.70;17.63;;;3.20;99.90;;;;;;5019992;28;20254;-61
2021/11/26 00:26:05;;;;;;;35.03;18.83;;;3.20;99.90;;;;;;5024249;28;20231;-60
2021/11/26 00:28:32;;;;;;;35.42;18.33;;;3.30;99.90;;;;;;5024042;28;20242;-60
2021/11/26 00:30:59;;;;;;;31.38;17.35;;;3.30;99.90;;;;;;5022557;28;20203;-59
2021/11/26 00:33:27;;;;;;;28.17;15.80;;;3.40;99.90;;;;;;5022938;28;20258;-60
2021/11/26 00:35:55;;;;;;;28.15;16.25;;;3.40;99.90;;;;;;5022019;28;20214;-60
2021/11/26 00:38:22;;;;;;;33.63;17.42;;;3.50;99.90;;;;;;5021508;28;20270;-60
2021/11/26 00:40:49;;;;;;;35.05;18.00;;;3.50;99.90;;;;;;5023772;28;20230;-61
2021/11/26 00:43:18;;;;;;;28.48;15.02;;;3.50;99.90;;;;;;5032645;28;20710;-61
2021/11/26 00:45:45;;;;;;;34.63;17.10;;;3.50;99.90;;;;;;5033809;28;20234;-60
2021/11/26 00:48:13;;;;;;;28.50;16.10;;;3.50;99.90;;;;;;5035400;28;20274;-59
2021/11/26 00:50:40;;;;;;;36.60;17.38;;;3.50;99.90;;;;;;5027929;28;20210;-59
2021/11/26 00:53:07;;;;;;;30.80;16.55;;;3.40;99.90;;;;;;5018033;28;20254;-60
2021/11/26 00:55:35;;;;;;;34.53;17.27;;;3.40;99.90;;;;;;5017802;28;20392;-59
2021/11/26 00:58:02;;;;;;;31.80;16.65;;;3.40;99.90;;;;;;5017706;28;20242;-60
2021/11/26 01:00:31;;;;;;;34.25;17.42;;;3.30;99.90;;;;;;5017106;28;20694;-58
2021/11/26 01:02:59;;;;;;;36.78;18.45;;;3.30;99.90;;;;;;5018103;28;20207;-60
2021/11/26 01:05:26;;;;;;;29.75;16.77;;;3.30;99.90;;;;;;5017622;28;20279;-60
2021/11/26 01:07:53;;;;;;;30.85;17.50;;;3.20;99.90;;;;;;5017118;28;20250;-60
2021/11/26 01:10:23;;;;;;;27.75;15.00;;;3.30;99.90;;;;;;5016970;28;20233;-59
2021/11/26 01:12:51;;;;;;;36.42;16.92;;;3.20;99.90;;;;;;5016945;28;20286;-59
2021/11/26 01:15:22;;;;;;;29.75;16.27;;;3.20;99.90;;;;;;5016753;28;20230;-61
2021/11/26 01:17:51;;;;;;;27.85;15.27;;;3.20;99.90;;;;;;5017092;28;20270;-60
2021/11/26 01:20:22;;;;;;;28.92;17.75;;;3.20;99.90;;;;;;5019517;28;20386;-60
2021/11/26 01:22:49;;;;;;;30.65;17.20;;;3.10;99.90;;;;;;5024952;28;20235;-61
2021/11/26 01:25:18;;;;;;;30.17;16.48;;;3.10;99.90;;;;;;5022824;28;20690;-59
2021/11/26 01:27:45;;;;;;;35.40;16.02;;;3.20;99.90;;;;;;5018895;28;20299;-60
2021/11/26 01:30:21;;;;;;;36.90;17.50;;;3.20;99.90;;;;;;5019802;28;20242;-61
2021/11/26 01:32:49;;;;;;;26.25;15.45;;;3.20;99.90;;;;;;5018622;28;20186;-60
2021/11/26 01:35:18;;;;;;;31.05;15.15;;;3.20;99.90;;;;;;5018277;28;20219;-60
2021/11/26 01:37:45;;;;;;;27.52;15.38;;;3.20;99.90;;;;;;5018838;28;20202;-59
2021/11/26 01:40:13;;;;;;;26.55;15.27;;;3.20;99.90;;;;;;5018369;28;20584;-60
2021/11/26 01:42:41;;;;;;;30.05;17.10;;;3.20;99.90;;;;;;5017510;28;20234;-60
2021/11/26 01:45:09;;;;;;;35.83;17.55;;;3.20;99.90;;;;;;5017444;28;20667;-61
2021/11/26 01:47:37;;;;;;;31.65;16.88;;;3.10;99.90;;;;;;5016738;28;20297;-59
2021/11/26 01:50:06;;;;;;;32.85;17.33;;;3.10;99.90;;;;;;5016757;28;20207;-59
2021/11/26 01:52:35;;;;;;;39.95;17.02;;;3.10;99.90;;;;;;5017183;28;20302;-61
2021/11/26 01:55:03;;;;;;;39.78;16.70;;;3.10;99.90;;;;;;5017559;28;20230;-60
2021/11/26 01:57:30;;;;;;;27.48;15.43;;;3.10;99.90;;;;;;5017283;28;20671;-60
2021/11/26 01:59:58;;;;;;;29.65;16.35;;;3.10;99.90;;;;;;5016447;28;20682;-59
2021/11/26 02:02:25;;;;;;;29.17;16.42;;;3.10;99.90;;;;;;5021336;28;20233;-60
2021/11/26 02:04:52;;;;;;;29.63;16.25;;;3.00;99.90;;;;;;5019552;28;20325;-60
2021/11/26 02:07:20;;;;;;;28.85;14.93;;;3.00;99.90;;;;;;5015939;28;20318;-60
2021/11/26 02:09:48;;;;;;;28.17;15.10;;;3.00;99.90;;;;;;5015871;28;20253;-61
2021/11/26 02:12:15;;;;;;;26.73;16.33;;;3.10;99.90;;;;;;5016548;28;20651;-60
2021/11/26 02:14:43;;;;;;;32.10;16.30;;;3.10;99.90;;;;;;5015696;28;20231;-59
2021/11/26 02:17:13;;;;;;;33.45;16.60;;;3.10;99.90;;;;;;5015800;28;20627;-60
2021/11/26 02:19:40;;;;;;;29.58;15.23;;;3.10;99.90;;;;;;5016569;28;20183;-60
2021/11/26 02:22:09;;;;;;;31.27;17.05;;;3.10;99.90;;;;;;5015504;28;20241;-59
2021/11/26 02:24:36;;;;;;;31.48;16.88;;;3.10;99.90;;;;;;5015395;28;20774;-60
2021/11/26 02:27:05;;;;;;;29.20;15.98;;;3.10;99.90;;;;;;5017397;28;20241;-60
2021/11/26 02:29:32;;;;;;;29.80;17.05;;;3.20;99.90;;;;;;5023245;28;20632;-60
2021/11/26 02:32:00;;;;;;;38.03;16.80;;;3.20;99.90;;;;;;5024102;28;20235;-58
2021/11/26 02:34:27;;;;;;;39.35;16.48;;;3.20;99.90;;;;;;5021682;28;20255;-59
2021/11/26 02:36:54;;;;;;;28.95;15.88;;;3.20;99.90;;;;;;5020536;28;20687;-60
2021/11/26 02:39:23;;;;;;;35.05;15.52;;;3.10;99.90;;;;;;5017762;28;20234;-59
2021/11/26 02:41:50;;;;;;;31.00;16.13;;;3.10;99.90;;;;;;5018053;28;20293;-59
2021/11/26 02:44:18;;;;;;;34.75;16.25;;;3.10;99.90;;;;;;5015758;28;20314;-60
2021/11/26 02:46:45;;;;;;;31.58;15.20;;;3.10;99.90;;;;;;5016598;28;20294;-60
2021/11/26 02:49:13;;;;;;;33.08;16.25;;;3.10;99.90;;;;;;5015082;28;20211;-60
2021/11/26 02:51:40;;;;;;;25.30;14.52;;;3.20;99.90;;;;;;5015146;28;20289;-60
2021/11/26 02:54:07;;;;;;;31.73;14.43;;;3.20;99.90;;;;;;5014750;28;20255;-61
2021/11/26 02:56:36;;;;;;;47.08;17.80;;;3.20;99.90;;;;;;5015083;28;20249;-60
2021/11/26 02:59:03;;;;;;;31.42;16.02;;;3.30;99.90;;;;;;5016848;28;20238;-60
2021/11/26 03:01:31;;;;;;;34.92;17.50;;;3.30;99.90;;;;;;5018201;28;20238;-59
2021/11/26 03:03:58;;;;;;;23.98;14.70;;;3.40;99.90;;;;;;5019510;28;20218;-60
2021/11/26 03:06:25;;;;;;;29.40;15.70;;;3.50;99.90;;;;;;5020838;28;20199;-59
2021/11/26 03:08:53;;;;;;;29.80;16.42;;;3.50;99.90;;;;;;5016902;28;20314;-60
2021/11/26 03:11:20;;;;;;;28.02;14.40;;;3.60;99.90;;;;;;5014947;28;20289;-60
2021/11/26 03:13:49;;;;;;;31.23;16.48;;;3.70;99.90;;;;;;5015155;28;20226;-60
2021/11/26 03:16:16;;;;;;;28.70;14.45;;;3.70;99.90;;;;;;5015165;28;20199;-60
2021/11/26 03:18:43;;;;;;;36.20;17.45;;;3.80;99.90;;;;;;5014654;28;20203;-59
2021/11/26 03:21:10;;;;;;;29.30;15.48;;;3.80;99.90;;;;;;5014682;28;20569;-60
2021/11/26 03:23:40;;;;;;;24.48;13.95;;;3.90;99.90;;;;;;5014424;28;20585;-60
2021/11/26 03:26:07;;;;;;;25.23;13.70;;;4.00;99.90;;;;;;5016382;28;20219;-60
2021/11/26 03:28:34;;;;;;;35.25;15.75;;;4.00;99.90;;;;;;5015633;28;20516;-60
2021/11/26 03:31:03;;;;;;;28.67;15.60;;;4.00;99.90;;;;;;5014357;28;20207;-61
2021/11/26 03:33:30;;;;;;;28.02;13.88;;;4.00;99.90;;;;;;5014446;28;20311;-59
2021/11/26 03:35:57;;;;;;;27.55;12.93;;;4.00;99.90;;;;;;5014100;28;20326;-60
2021/11/26 03:38:24;;;;;;;35.15;14.35;;;4.10;99.90;;;;;;5014454;28;20249;-59
2021/11/26 03:40:52;;;;;;;27.50;13.43;;;4.10;99.90;;;;;;5014498;28;20238;-61
2021/11/26 03:43:19;;;;;;;28.40;14.40;;;4.10;99.90;;;;;;5014265;28;20629;-60
2021/11/26 03:45:46;;;;;;;29.67;13.68;;;4.20;99.90;;;;;;5014232;28;20199;-60
2021/11/26 03:48:15;;;;;;;25.50;13.30;;;4.20;99.90;;;;;;5014274;28;20617;-61
2021/11/26 03:50:42;;;;;;;27.70;12.77;;;4.20;99.90;;;;;;5014550;28;20285;-60
2021/11/26 03:53:09;;;;;;;26.30;13.07;;;4.20;99.90;;;;;;5018822;28;20255;-60
2021/11/26 03:55:37;;;;;;;25.52;12.85;;;4.30;99.90;;;;;;5016885;28;20227;-60
2021/11/26 03:58:04;;;;;;;27.63;13.32;;;4.30;99.90;;;;;;5013940;28;20298;-60
2021/11/26 04:00:31;;;;;;;27.88;11.90;;;4.30;99.90;;;;;;5013607;28;20612;-60
2021/11/26 04:02:59;;;;;;;20.55;11.73;;;4.40;99.90;;;;;;5013660;28;20250;-60
2021/11/26 04:08:56;;;;;;;22.35;13.18;;;4.40;99.90;;;;;;5095362;27;21057;-60
2021/11/26 04:11:25;;;;;;;25.33;12.93;;;4.50;99.90;;;;;;5095368;28;20256;-61
2021/11/26 04:13:53;;;;;;;36.25;14.55;;;4.50;99.90;;;;;;5093505;28;20217;-59
2021/11/26 04:16:20;;;;;;;27.17;14.40;;;4.50;99.90;;;;;;5092944;28;20206;-60
2021/11/26 04:18:47;;;;;;;27.85;13.02;;;4.60;99.90;;;;;;5094475;28;20213;-60
2021/11/26 04:21:15;;;;;;;23.70;13.25;;;4.60;99.90;;;;;;5112937;22;20217;-56
2021/11/26 04:23:44;;;;;;;29.90;13.85;;;4.60;99.90;;;;;;5050732;28;20281;-57
2021/11/26 04:26:12;;;;;;;32.92;14.73;;;4.60;99.90;;;;;;5050320;28;20255;-57
2021/11/26 04:28:40;;;;;;;29.15;14.88;;;4.70;99.90;;;;;;5050183;28;20281;-57
2021/11/26 04:31:07;;;;;;;26.95;13.52;;;4.70;99.90;;;;;;5050478;28;20317;-57
2021/11/26 04:33:35;;;;;;;29.05;13.93;;;4.70;99.90;;;;;;5050562;28;20662;-55
2021/11/26 04:36:04;;;;;;;27.05;13.50;;;4.70;99.90;;;;;;5049861;28;20256;-56
2021/11/26 04:38:31;;;;;;;31.77;15.75;;;4.80;99.90;;;;;;5050183;28;20548;-56
2021/11/26 04:40:58;;;;;;;33.42;13.95;;;4.80;99.90;;;;;;5049667;28;20736;-56
2021/11/26 04:43:27;;;;;;;26.65;14.55;;;4.80;99.90;;;;;;5049765;28;20690;-57
2021/11/26 04:45:54;;;;;;;28.98;15.05;;;4.80;99.90;;;;;;5050837;28;20279;-56
2021/11/26 04:48:22;;;;;;;32.25;15.07;;;4.80;99.90;;;;;;5049891;28;20308;-57
2021/11/26 04:50:50;;;;;;;27.10;14.80;;;4.80;99.90;;;;;;5049471;28;20598;-57
2021/11/26 04:53:18;;;;;;;29.75;14.95;;;4.80;99.90;;;;;;5049538;28;20301;-57
2021/11/26 04:55:46;;;;;;;34.67;14.40;;;4.80;99.90;;;;;;5049779;28;20636;-57
2021/11/26 04:58:13;;;;;;;27.83;13.40;;;4.90;99.90;;;;;;5049785;28;20304;-57
2021/11/26 05:00:42;;;;;;;28.45;15.10;;;4.90;99.90;;;;;;5049227;28;20297;-55
2021/11/26 05:03:12;;;;;;;31.25;16.67;;;4.90;99.90;;;;;;5049645;28;20297;-56
2021/11/26 05:05:40;;;;;;;36.72;16.65;;;4.90;99.90;;;;;;5049283;28;20202;-56
2021/11/26 05:08:07;;;;;;;31.48;15.80;;;4.90;99.90;;;;;;5049213;28;20699;-57
2021/11/26 05:10:34;;;;;;;36.97;20.23;;;5.00;99.90;;;;;;5049552;28;20638;-56
2021/11/26 05:13:03;;;;;;;34.50;18.77;;;5.00;99.90;;;;;;5049190;28;20662;-57
2021/11/26 05:15:32;;;;;;;33.45;17.00;;;4.90;99.90;;;;;;5049093;28;20638;-56
2021/11/26 05:18:03;;;;;;;35.80;18.35;;;4.90;99.90;;;;;;5048906;28;20289;-57
2021/11/26 05:20:32;;;;;;;42.83;22.10;;;4.90;99.90;;;;;;5035299;28;20218;-56
2021/11/26 05:23:01;;;;;;;36.42;17.90;;;4.90;99.90;;;;;;5035641;28;20737;-57
2021/11/26 05:25:28;;;;;;;43.65;20.48;;;4.80;99.90;;;;;;5036507;28;20206;-56
2021/11/26 05:27:56;;;;;;;43.38;19.98;;;4.80;99.90;;;;;;5035569;28;20228;-56
2021/11/26 05:30:23;;;;;;;39.95;20.58;;;4.80;99.90;;;;;;5035857;28;20297;-56
2021/11/26 05:32:50;;;;;;;36.50;19.42;;;4.80;99.90;;;;;;5035507;28;20309;-57
2021/11/26 05:35:20;;;;;;;39.42;21.80;;;4.80;99.90;;;;;;5035344;28;20210;-57
2021/11/26 05:37:47;;;;;;;43.88;20.92;;;4.90;99.90;;;;;;5035641;28;20264;-56
2021/11/26 05:40:16;;;;;;;44.33;22.88;;;4.90;99.90;;;;;;5036090;28;20554;-56
2021/11/26 05:42:44;;;;;;;36.65;19.70;;;4.90;99.90;;;;;;5035320;28;20325;-56
2021/11/26 05:45:13;;;;;;;41.47;19.45;;;4.90;99.90;;;;;;5035258;28;20302;-55
2021/11/26 05:47:40;;;;;;;43.85;19.35;;;4.90;99.90;;;;;;5035475;28;20314;-55
2021/11/26 05:50:11;;;;;;;37.63;18.98;;;5.00;99.90;;;;;;5035693;28;20245;-56
2021/11/26 05:52:40;;;;;;;38.90;18.85;;;4.90;99.90;;;;;;5035203;28;20253;-56
2021/11/26 05:55:10;;;;;;;43.22;18.85;;;4.90;99.90;;;;;;5035035;28;20289;-56
2021/11/26 05:57:39;;;;;;;38.75;19.30;;;5.00;99.90;;;;;;5035484;28;20245;-58
2021/11/26 06:00:10;;;;;;;30.45;18.02;;;5.00;99.90;;;;;;5034938;28;20288;-56
2021/11/26 06:02:37;;;;;;;41.03;19.08;;;5.00;99.90;;;;;;5035088;28;20662;-57
2021/11/26 06:05:05;;;;;;;33.45;17.50;;;5.00;99.90;;;;;;5034965;28;20298;-56
2021/11/26 06:07:34;;;;;;;35.90;17.08;;;5.10;99.90;;;;;;5034734;28;20659;-56
2021/11/26 06:10:04;;;;;;;34.60;17.45;;;5.00;99.90;;;;;;5034927;28;20206;-57
2021/11/26 06:12:31;;;;;;;35.95;17.30;;;5.10;99.90;;;;;;5034878;28;20253;-57
2021/11/26 06:14:58;;;;;;;40.90;16.80;;;5.10;99.90;;;;;;5034813;28;20302;-56
2021/11/26 06:17:25;;;;;;;35.78;17.88;;;5.10;99.90;;;;;;5035049;28;20248;-57
2021/11/26 06:19:53;;;;;;;32.42;17.20;;;5.20;99.90;;;;;;5034977;28;20306;-57
2021/11/26 06:22:20;;;;;;;27.85;15.57;;;5.10;99.90;;;;;;5034683;28;20317;-57
2021/11/26 06:24:47;;;;;;;33.13;16.63;;;5.10;99.90;;;;;;5034506;28;20741;-56
2021/11/26 06:27:16;;;;;;;33.17;17.52;;;5.10;99.90;;;;;;5034853;28;20289;-56
2021/11/26 06:29:43;;;;;;;37.25;18.92;;;5.10;99.90;;;;;;5034803;28;20289;-56
2021/11/26 06:32:10;;;;;;;29.23;17.80;;;5.10;99.90;;;;;;5034175;28;20744;-56
2021/11/26 06:34:37;;;;;;;31.65;15.52;;;5.20;99.90;;;;;;5034869;28;20234;-57
2021/11/26 06:37:05;;;;;;;28.33;16.60;;;5.20;99.90;;;;;;5034920;28;20249;-56
2021/11/26 06:39:32;;;;;;;29.92;16.13;;;5.20;99.90;;;;;;5034961;28;20721;-56
2021/11/26 06:42:00;;;;;;;32.78;18.40;;;5.20;99.90;;;;;;5034563;28;20280;-56
2021/11/26 06:44:29;;;;;;;35.53;16.05;;;5.20;99.90;;;;;;5034794;28;20198;-55
2021/11/26 06:46:56;;;;;;;28.85;15.77;;;5.20;99.90;;;;;;5034160;28;20289;-56
2021/11/26 06:49:23;;;;;;;29.05;15.75;;;5.20;99.90;;;;;;5034746;28;20317;-56
2021/11/26 06:51:50;;;;;;;25.58;15.80;;;5.20;99.90;;;;;;5034069;28;20313;-57
2021/11/26 06:54:18;;;;;;;30.35;15.63;;;5.20;99.90;;;;;;5033706;28;20234;-56
2021/11/26 06:56:45;;;;;;;29.58;16.65;;;5.20;99.90;;;;;;5033914;28;20225;-56
2021/11/26 06:59:12;;;;;;;26.52;14.98;;;5.20;99.90;;;;;;5034014;28;20229;-54
2021/11/26 07:01:41;;;;;;;31.17;16.23;;;5.20;99.90;;;;;;5033845;28;20308;-57
2021/11/26 07:04:09;;;;;;;26.70;15.23;;;5.20;99.90;;;;;;5034291;28;20304;-57
2021/11/26 07:06:37;;;;;;;26.75;14.70;;;5.20;99.90;;;;;;5033666;28;20202;-57
2021/11/26 07:09:05;;;;;;;23.33;13.93;;;5.20;99.90;;;;;;5033664;28;20318;-57
2021/11/26 07:11:32;;;;;;;25.35;14.15;;;5.20;99.90;;;;;;5033432;28;20253;-57
2021/11/26 07:13:59;;;;;;;24.85;15.25;;;5.20;99.90;;;;;;5033610;28;20625;-58
2021/11/26 07:16:27;;;;;;;21.42;13.68;;;5.20;99.90;;;;;;5034469;28;20624;-56
2021/11/26 07:18:55;;;;;;;24.52;14.10;;;5.30;99.90;;;;;;5033676;28;20202;-56
2021/11/26 07:21:23;;;;;;;26.13;13.73;;;5.30;99.90;;;;;;5033174;28;20329;-56
2021/11/26 07:23:50;;;;;;;22.63;12.80;;;5.30;99.90;;;;;;5033534;28;20297;-57
2021/11/26 07:26:17;;;;;;;24.52;13.52;;;5.30;99.90;;;;;;5033074;28;20257;-57
2021/11/26 07:28:46;;;;;;;23.77;12.18;;;5.30;99.90;;;;;;5033161;28;20268;-57
2021/11/26 07:31:13;;;;;;;20.75;11.60;;;5.30;99.90;;;;;;5032830;28;20313;-57
2021/11/26 07:33:40;;;;;;;18.83;11.18;;;5.30;99.90;;;;;;5033509;28;20293;-57
2021/11/26 07:36:09;;;;;;;22.88;12.48;;;5.30;99.90;;;;;;5033223;28;20400;-58
2021/11/26 07:38:37;;;;;;;23.83;11.57;;;5.30;99.90;;;;;;5033467;28;20308;-57
2021/11/26 07:41:04;;;;;;;28.05;14.65;;;5.30;99.90;;;;;;5033886;28;20628;-56
2021/11/26 07:43:32;;;;;;;27.15;14.48;;;5.30;99.90;;;;;;5033147;28;20297;-57
2021/11/26 07:46:01;;;;;;;23.23;13.27;;;5.30;99.90;;;;;;5033008;28;20301;-56
2021/11/26 07:48:28;;;;;;;29.05;12.43;;;5.40;99.90;;;;;;5033114;28;20222;-57
2021/11/26 07:50:56;;;;;;;20.63;12.25;;;5.40;99.90;;;;;;5033022;28;20258;-58
2021/11/26 07:53:25;;;;;;;22.17;12.02;;;5.40;99.90;;;;;;5033783;28;20554;-57
2021/11/26 07:55:52;;;;;;;20.00;11.82;;;5.40;99.90;;;;;;5033135;28;20641;-57
2021/11/26 07:58:19;;;;;;;21.38;12.52;;;5.40;99.90;;;;;;5033092;28;20202;-58
2021/11/26 08:00:46;;;;;;;20.48;12.95;;;5.40;99.90;;;;;;5033345;28;20284;-56
2021/11/26 08:03:15;;;;;;;21.38;12.23;;;5.40;99.90;;;;;;5032797;28;20206;-57
2021/11/26 08:05:42;;;;;;;18.30;10.50;;;5.40;99.90;;;;;;5032934;28;20198;-56
2021/11/26 08:08:10;;;;;;;23.50;13.15;;;5.40;99.90;;;;;;5032901;28;20309;-57
2021/11/26 08:10:39;;;;;;;19.85;12.05;;;5.40;99.90;;;;;;5032680;28;20280;-56
2021/11/26 08:13:07;;;;;;;23.33;12.02;;;5.50;99.90;;;;;;5032771;28;20202;-57
2021/11/26 08:15:36;;;;;;;18.20;11.38;;;5.40;99.90;;;;;;5032927;28;20198;-57
2021/11/26 08:18:06;;;;;;;18.88;12.10;;;5.40;99.90;;;;;;5032853;28;20766;-57
2021/11/26 08:20:36;;;;;;;22.40;11.90;;;5.40;99.90;;;;;;5033155;28;20225;-57
2021/11/26 08:23:04;;;;;;;19.08;12.05;;;5.40;99.90;;;;;;5033066;28;20202;-57
2021/11/26 08:25:32;;;;;;;20.77;12.07;;;5.40;99.90;;;;;;5032681;28;20206;-57
2021/11/26 08:28:00;;;;;;;23.08;11.43;;;5.40;99.90;;;;;;5032729;28;20202;-57
2021/11/26 08:30:28;;;;;;;21.08;11.07;;;5.30;99.90;;;;;;5032641;28;20202;-57
2021/11/26 08:32:55;;;;;;;24.30;11.85;;;5.30;99.90;;;;;;5032550;28;20311;-57
2021/11/26 08:35:24;;;;;;;23.50;11.00;;;5.30;99.90;;;;;;5032420;28;20203;-56
2021/11/26 08:37:53;;;;;;;25.23;12.52;;;5.30;99.90;;;;;;5032657;28;20202;-58
2021/11/26 08:40:20;;;;;;;16.33;10.73;;;5.30;99.90;;;;;;5032473;28;20206;-57
2021/11/26 08:42:48;;;;;;;14.32;9.55;;;5.30;99.90;;;;;;5032567;28;20226;-57
2021/11/26 08:45:19;;;;;;;20.92;12.27;;;5.30;99.90;;;;;;5032419;28;20644;-56
2021/11/26 08:47:47;;;;;;;21.48;10.57;;;5.30;99.90;;;;;;5032529;28;20191;-56
2021/11/26 08:50:16;;;;;;;22.98;12.32;;;5.30;99.90;;;;;;5032642;28;20254;-56
2021/11/26 08:52:44;;;;;;;23.90;12.23;;;5.30;99.90;;;;;;5032522;28;20227;-57
2021/11/26 08:55:14;;;;;;;22.58;10.50;;;5.30;99.90;;;;;;5035488;28;20678;-56
2021/11/26 08:57:48;;;;;;;18.65;9.63;;;5.20;99.90;;;;;;5037063;28;20253;-55
2021/11/26 09:00:18;;;;;;;15.32;9.82;;;5.20;99.90;;;;;;5036527;28;20186;-56
2021/11/26 09:02:46;;;;;;;18.88;10.50;;;5.20;99.90;;;;;;5036174;28;20225;-56
2021/11/26 09:05:14;;;;;;;18.08;11.10;;;5.30;99.90;;;;;;5035877;28;20213;-55
2021/11/26 09:07:43;;;;;;;25.33;9.93;;;5.30;99.90;;;;;;5035668;28;20203;-55
2021/11/26 09:10:11;;;;;;;16.08;9.32;;;5.30;99.90;;;;;;5035843;28;20230;-56
2021/11/26 09:12:38;;;;;;;17.65;9.75;;;5.30;99.90;;;;;;5036055;28;20782;-55
2021/11/26 09:15:06;;;;;;;20.52;8.80;;;5.30;99.90;;;;;;5037024;28;20230;-56
2021/11/26 09:17:35;;;;;;;15.68;9.40;;;5.30;99.90;;;;;;5036713;28;20245;-56
2021/11/26 09:20:02;;;;;;;16.40;9.70;;;5.20;99.90;;;;;;5036249;28;20289;-56
2021/11/26 09:22:30;;;;;;;12.88;8.55;;;5.20;99.90;;;;;;5035915;28;20250;-57
2021/11/26 09:24:58;;;;;;;14.88;8.80;;;5.20;99.90;;;;;;5036700;28;20253;-55
2021/11/26 09:27:25;;;;;;;13.27;8.82;;;5.20;99.90;;;;;;5036990;28;20731;-55
2021/11/26 09:29:53;;;;;;;16.80;9.55;;;5.20;99.90;;;;;;5036831;28;20218;-54
2021/11/26 09:32:20;;;;;;;18.05;8.63;;;5.20;99.90;;;;;;5037414;28;20732;-56
2021/11/26 09:34:50;;;;;;;12.70;7.60;;;5.20;99.90;;;;;;5037637;28;20289;-55
2021/11/26 09:37:18;;;;;;;14.02;8.38;;;5.20;99.90;;;;;;5037338;28;20199;-55
2021/11/26 09:39:45;;;;;;;16.23;9.45;;;5.20;99.90;;;;;;5036922;28;20249;-56
2021/11/26 09:42:12;;;;;;;13.63;8.68;;;5.20;99.90;;;;;;5037246;28;20276;-56
2021/11/26 09:44:42;;;;;;;14.02;7.60;;;5.20;99.90;;;;;;5037584;28;20698;-55
2021/11/26 09:47:10;;;;;;;14.20;8.63;;;5.10;99.90;;;;;;5037917;28;20212;-55
2021/11/26 09:49:37;;;;;;;12.75;8.00;;;5.20;99.90;;;;;;5037176;28;20254;-56
2021/11/26 09:52:07;;;;;;;12.35;8.18;;;5.20;99.90;;;;;;5037008;28;20253;-56
2021/11/26 09:54:39;;;;;;;12.32;8.18;;;5.20;99.90;;;;;;5036886;28;20233;-56
2021/11/26 09:57:07;;;;;;;13.93;8.20;;;5.20;99.90;;;;;;5038448;28;20552;-56
2021/11/26 09:59:34;;;;;;;15.70;8.40;;;5.20;99.90;;;;;;5037043;28;20198;-56
2021/11/26 10:02:09;;;;;;;17.83;10.23;;;5.20;99.90;;;;;;5035137;28;20222;-56
2021/11/26 10:04:37;;;;;;;12.27;7.82;;;5.10;99.90;;;;;;5035635;28;20182;-56
2021/11/26 10:07:07;;;;;;;17.35;9.38;;;5.10;99.90;;;;;;5035366;28;20245;-56
2021/11/26 10:09:35;;;;;;;16.20;8.20;;;5.10;99.90;;;;;;5035369;28;20254;-56
2021/11/26 10:12:08;;;;;;;16.48;9.32;;;5.10;99.90;;;;;;5035173;28;20225;-57
2021/11/26 10:14:38;;;;;;;12.30;8.15;;;5.10;99.90;;;;;;5035298;28;20187;-55
2021/11/26 10:17:11;;;;;;;16.15;8.80;;;5.10;99.90;;;;;;5034765;28;20245;-55
2021/11/26 10:19:40;;;;;;;13.32;8.43;;;5.10;99.90;;;;;;5035916;28;20640;-56
2021/11/26 10:22:18;;;;;;;15.80;8.57;;;5.10;99.90;;;;;;5059501;22;20222;-61
2021/11/26 10:24:58;;;;;;;12.00;8.63;;;5.10;99.90;;;;;;5035247;28;20194;-60
2021/11/26 10:27:35;;;;;;;14.27;8.05;;;5.10;99.90;;;;;;5035656;28;20190;-60
2021/11/26 10:30:10;;;;;;;11.70;8.38;;;5.10;99.90;;;;;;5035265;28;20297;-60
2021/11/26 10:32:38;;;;;;;11.70;8.30;;;5.20;99.90;;;;;;5035225;28;20701;-59
2021/11/26 10:35:05;;;;;;;12.43;8.50;;;5.20;99.90;;;;;;5034993;28;20199;-59
2021/11/26 10:37:34;;;;;;;12.60;8.38;;;5.20;99.90;;;;;;5035587;28;20686;-61
2021/11/26 10:40:17;;;;;;;12.18;8.25;;;5.20;99.90;;;;;;5035787;28;20233;-60
2021/11/26 10:42:46;;;;;;;12.48;8.27;;;5.20;99.90;;;;;;5035425;28;20262;-59
2021/11/26 10:45:19;;;;;;;12.73;8.90;;;5.30;99.90;;;;;;5035133;28;20294;-60
2021/11/26 10:47:50;;;;;;;13.27;9.35;;;5.20;99.90;;;;;;5034969;28;20668;-60
2021/11/26 10:58:51;;;;;;;11.90;8.57;;;5.30;99.90;;;;;;5034807;28;20186;-61
2021/11/26 11:01:20;;;;;;;10.00;7.35;;;5.30;99.90;;;;;;5034925;28;20202;-60
2021/11/26 11:03:47;;;;;;;14.95;8.77;;;5.30;99.90;;;;;;5034925;28;20226;-60
2021/11/26 11:06:19;;;;;;;13.02;8.25;;;5.20;99.90;;;;;;5034754;28;20210;-59
2021/11/26 11:08:59;;;;;;;11.75;7.22;;;5.20;99.90;;;;;;5034637;28;20206;-58
2021/11/26 11:11:26;;;;;;;10.82;7.28;;;5.10;99.90;;;;;;5034632;28;20513;-60
2021/11/26 11:13:53;;;;;;;11.05;7.82;;;5.10;99.90;;;;;;5034195;28;20202;-58
2021/11/26 11:16:21;;;;;;;12.23;7.90;;;5.00;99.90;;;;;;5034273;28;20228;-57
2021/11/26 11:18:49;;;;;;;12.40;7.38;;;5.00;99.90;;;;;;5034399;28;20206;-60
2021/11/26 11:21:16;;;;;;;11.05;8.10;;;4.90;99.90;;;;;;5034044;28;20412;-59
2021/11/26 11:23:44;;;;;;;10.38;7.10;;;4.90;99.90;;;;;;5034327;28;20241;-59
2021/11/26 11:26:12;;;;;;;14.18;7.75;;;4.90;99.90;;;;;;5033709;28;20221;-60
2021/11/26 11:28:39;;;;;;;11.43;7.82;;;4.80;99.90;;;;;;5033461;28;20241;-60
2021/11/26 11:31:07;;;;;;;12.05;6.25;;;4.80;99.90;;;;;;5033767;28;20257;-58
2021/11/26 11:33:35;;;;;;;14.52;8.05;;;4.80;99.90;;;;;;5033587;28;20256;-60
2021/11/26 11:36:06;;;;;;;14.43;8.10;;;4.80;99.90;;;;;;5038483;28;20218;-60
2021/11/26 11:38:33;;;;;;;13.45;8.43;;;4.70;99.90;;;;;;5036103;28;20281;-60
2021/11/26 11:41:03;;;;;;;13.23;7.00;;;4.70;99.90;;;;;;5034293;28;20236;-59
2021/11/26 11:43:41;;;;;;;14.02;8.73;;;4.70;99.90;;;;;;5034205;28;20237;-58
2021/11/26 11:46:12;;;;;;;13.05;8.52;;;4.70;99.90;;;;;;5035452;28;20218;-62
2021/11/26 11:48:45;;;;;;;14.13;8.95;;;4.70;99.90;;;;;;5037334;28;20190;-61
2021/11/26 11:51:23;;;;;;;14.77;8.48;;;4.70;99.90;;;;;;5034218;28;20576;-60
2021/11/26 11:54:02;;;;;;;12.93;8.25;;;4.80;99.90;;;;;;5034922;28;20281;-60
2021/11/26 11:56:40;;;;;;;14.25;8.93;;;4.90;99.90;;;;;;5034838;28;20638;-62
2021/11/26 11:59:09;;;;;;;11.30;8.23;;;5.00;99.90;;;;;;5034779;28;20190;-60
2021/11/26 12:01:41;;;;;;;12.52;7.70;;;5.10;99.90;;;;;;5036315;28;20253;-62
2021/11/26 12:04:16;;;;;;;11.65;7.15;;;5.10;99.90;;;;;;5035591;28;20183;-60
2021/11/26 12:06:45;;;;;;;10.15;7.18;;;5.20;99.90;;;;;;5034905;28;20649;-62
2021/11/26 12:09:22;;;;;;;11.75;8.20;;;5.30;99.90;;;;;;5035849;28;20329;-63
2021/11/26 12:11:55;;;;;;;9.65;7.05;;;5.40;99.90;;;;;;5033488;28;20702;-62
2021/11/26 12:14:24;;;;;;;11.35;7.93;;;5.40;99.90;;;;;;5034587;28;20225;-59
2021/11/26 12:17:05;;;;;;;10.23;7.45;;;5.40;99.90;;;;;;5033860;28;20225;-60
2021/11/26 12:19:33;;;;;;;11.27;7.55;;;5.50;99.90;;;;;;5033631;28;20186;-60
2021/11/26 12:22:00;;;;;;;10.57;7.88;;;5.50;99.90;;;;;;5033826;28;20265;-61
2021/11/26 12:24:36;;;;;;;10.20;6.72;;;5.50;99.90;;;;;;5037644;28;20233;-63
2021/11/26 12:27:06;;;;;;;12.10;8.23;;;5.50;99.90;;;;;;5040487;28;20186;-60
2021/11/26 12:29:39;;;;;;;13.15;8.23;;;5.40;99.90;;;;;;5044807;28;20702;-60
2021/11/26 12:32:11;;;;;;;9.38;7.70;;;5.40;99.90;;;;;;5046305;28;20234;-60
2021/11/26 12:34:41;;;;;;;10.48;7.78;;;5.40;99.90;;;;;;5042181;28;20241;-61
2021/11/26 12:37:18;;;;;;;12.65;8.75;;;5.50;99.90;;;;;;5038999;28;20571;-59
2021/11/26 12:39:45;;;;;;;9.20;6.65;;;5.50;99.90;;;;;;5038666;28;20227;-61
2021/11/26 12:42:14;;;;;;;9.20;6.57;;;5.60;99.90;;;;;;5038968;28;20678;-61
2021/11/26 12:44:43;;;;;;;8.93;6.90;;;5.60;99.90;;;;;;5039479;28;20203;-61
2021/11/26 12:47:13;;;;;;;11.00;7.10;;;5.60;99.90;;;;;;5038760;28;20226;-60
2021/11/26 12:52:26;;;;;;;11.02;8.13;;;5.70;99.90;;;;;;5037077;28;20279;-60
2021/11/26 12:54:55;;;;;;;9.43;7.20;;;5.80;99.90;;;;;;5037532;28;20681;-61
2021/11/26 12:57:24;;;;;;;11.38;8.52;;;5.80;99.90;;;;;;5037607;28;20206;-59
2021/11/26 12:59:54;;;;;;;9.20;7.20;;;5.90;99.90;;;;;;5037339;28;20634;-60
2021/11/26 13:02:25;;;;;;;9.55;7.28;;;6.00;99.90;;;;;;5037663;28;20732;-61